Airfield :
LOGIN :

Register | Disclaimer

   EN    FR    IT 

 










Legend :    VFR   Marginal VFR   IFR   Intensive IFR   Very Intensive IFR
Visi :
Ceiling :
>= 8 km
>= 3000ft
5 to 8 km
1000 to 3000 ft
1500m to 5 km
500 to 1000 ft
800 to 1500m
200 to 500 ft
< 800m
< 200 ft
Symbols :   Thunderstorms  Fog  Heavy snow  Heavy precipitations  Wind > 20 kt
SIGMETs :     Misc.  Thunderstorms  Icing  Turbulence  Mountain Waves  Volcanic Ashes






- Airport Elevation : 287 ft


LFRL - Lanveoc Poulmic

CURRENT METAR :
  • 151400Z AUTO 30005KT 9999 BKN048/// BKN100/// ///TCU 22/16 Q1014

EXPIRED METARs :
  • 151330Z AUTO 29005KT CAVOK 21/15 Q1014
  • 151300Z AUTO 33004KT CAVOK 21/14 Q1015
  • 151230Z AUTO ///03KT 9999 FEW032 SCT043 BKN050 21/15 Q1015
  • 151200Z AUTO ///03KT 9999 SCT022 BKN054 BKN110 21/16 Q1015
  • 151130Z AUTO 31004KT 280V350 9999 SCT022 BKN027 BKN037 20/16 Q1015

Expired Forecast.



MET'MAP, your aeronautical weather chart ! - Copyright ORBIFLY December 2007 - Disclaimer

ORBIFLY MET'MAP TEAM :

Programming & Development : Alexandra Zaïnal
Concept & original design : Baudouin d'Aumeries
Assistance for programming : Marc-Olivier Méhu
Technical & hardware support : Manuel Goepfert

Contact : metmap@orbifly.com




SOURCES & CREDITS :

   NOAA